sensor_id;sensor_type;location;lat;lon;timestamp;temperature;humidity
5806;DHT22;2929;50.810;8.342;2023-12-14T00:01:28;3.60;99.90
5806;DHT22;2929;50.810;8.342;2023-12-14T00:03:55;3.60;99.90
5806;DHT22;2929;50.810;8.342;2023-12-14T00:06:22;3.60;99.90
5806;DHT22;2929;50.810;8.342;2023-12-14T00:08:49;3.70;99.90
5806;DHT22;2929;50.810;8.342;2023-12-14T00:11:17;3.70;99.90
5806;DHT22;2929;50.810;8.342;2023-12-14T00:13:44;3.70;99.90
5806;DHT22;2929;50.810;8.342;2023-12-14T00:16:13;3.70;99.90
5806;DHT22;2929;50.810;8.342;2023-12-14T00:18:40;3.70;99.90
5806;DHT22;2929;50.810;8.342;2023-12-14T00:21:08;3.70;99.90
5806;DHT22;2929;50.810;8.342;2023-12-14T00:23:35;3.80;99.90
5806;DHT22;2929;50.810;8.342;2023-12-14T00:26:04;3.70;99.90
5806;DHT22;2929;50.810;8.342;2023-12-14T00:28:30;3.80;99.90
5806;DHT22;2929;50.810;8.342;2023-12-14T00:30:58;3.80;99.90
5806;DHT22;2929;50.810;8.342;2023-12-14T00:33:27;3.80;99.90
5806;DHT22;2929;50.810;8.342;2023-12-14T00:35:56;3.80;99.90
5806;DHT22;2929;50.810;8.342;2023-12-14T00:38:24;3.80;99.90
5806;DHT22;2929;50.810;8.342;2023-12-14T00:40:54;3.80;99.90
5806;DHT22;2929;50.810;8.342;2023-12-14T00:43:23;3.80;99.90
5806;DHT22;2929;50.810;8.342;2023-12-14T00:45:53;3.80;99.90
5806;DHT22;2929;50.810;8.342;2023-12-14T00:48:23;3.80;99.90
5806;DHT22;2929;50.810;8.342;2023-12-14T00:50:55;3.80;99.90
5806;DHT22;2929;50.810;8.342;2023-12-14T00:53:24;3.80;99.90
5806;DHT22;2929;50.810;8.342;2023-12-14T00:55:55;3.80;99.90
5806;DHT22;2929;50.810;8.342;2023-12-14T00:58:22;3.80;99.90
5806;DHT22;2929;50.810;8.342;2023-12-14T01:00:53;3.80;99.90
5806;DHT22;2929;50.810;8.342;2023-12-14T01:03:25;3.80;99.90
5806;DHT22;2929;50.810;8.342;2023-12-14T01:05:56;3.80;99.90
5806;DHT22;2929;50.810;8.342;2023-12-14T01:08:28;3.80;99.90
5806;DHT22;2929;50.810;8.342;2023-12-14T01:10:57;3.90;99.90
5806;DHT22;2929;50.810;8.342;2023-12-14T01:13:24;3.90;99.90
5806;DHT22;2929;50.810;8.342;2023-12-14T01:15:51;3.90;99.90
5806;DHT22;2929;50.810;8.342;2023-12-14T01:18:18;3.80;99.90
5806;DHT22;2929;50.810;8.342;2023-12-14T01:20:45;3.80;99.90
5806;DHT22;2929;50.810;8.342;2023-12-14T01:23:13;3.80;99.90
5806;DHT22;2929;50.810;8.342;2023-12-14T01:25:40;3.80;99.90
5806;DHT22;2929;50.810;8.342;2023-12-14T01:28:07;3.80;99.90
5806;DHT22;2929;50.810;8.342;2023-12-14T01:30:34;3.90;99.90
5806;DHT22;2929;50.810;8.342;2023-12-14T01:33:01;3.90;99.90
5806;DHT22;2929;50.810;8.342;2023-12-14T01:35:28;3.90;99.90
5806;DHT22;2929;50.810;8.342;2023-12-14T01:37:55;3.90;99.90
5806;DHT22;2929;50.810;8.342;2023-12-14T01:40:24;3.90;99.90
5806;DHT22;2929;50.810;8.342;2023-12-14T01:42:51;3.90;99.90
5806;DHT22;2929;50.810;8.342;2023-12-14T01:45:18;3.90;99.90
5806;DHT22;2929;50.810;8.342;2023-12-14T01:47:45;3.80;99.90
5806;DHT22;2929;50.810;8.342;2023-12-14T01:50:12;3.90;99.90
5806;DHT22;2929;50.810;8.342;2023-12-14T01:52:39;3.90;99.90
5806;DHT22;2929;50.810;8.342;2023-12-14T01:55:06;3.90;99.90
5806;DHT22;2929;50.810;8.342;2023-12-14T01:57:35;3.80;99.90
5806;DHT22;2929;50.810;8.342;2023-12-14T02:00:02;3.90;99.90
5806;DHT22;2929;50.810;8.342;2023-12-14T02:02:30;3.90;99.90
5806;DHT22;2929;50.810;8.342;2023-12-14T02:04:57;3.80;99.90
5806;DHT22;2929;50.810;8.342;2023-12-14T02:07:24;3.80;99.90
5806;DHT22;2929;50.810;8.342;2023-12-14T02:10:07;3.80;99.90
5806;DHT22;2929;50.810;8.342;2023-12-14T02:12:41;3.80;99.90
5806;DHT22;2929;50.810;8.342;2023-12-14T02:15:09;3.70;99.90
5806;DHT22;2929;50.810;8.342;2023-12-14T02:17:35;3.70;99.90
5806;DHT22;2929;50.810;8.342;2023-12-14T02:20:03;3.70;99.90
5806;DHT22;2929;50.810;8.342;2023-12-14T02:22:35;3.70;99.90
5806;DHT22;2929;50.810;8.342;2023-12-14T02:25:04;3.70;99.90
5806;DHT22;2929;50.810;8.342;2023-12-14T02:27:31;3.60;99.90
5806;DHT22;2929;50.810;8.342;2023-12-14T02:29:58;3.60;99.90
5806;DHT22;2929;50.810;8.342;2023-12-14T02:32:25;3.60;99.90
5806;DHT22;2929;50.810;8.342;2023-12-14T02:34:52;3.70;99.90
5806;DHT22;2929;50.810;8.342;2023-12-14T02:37:19;3.60;99.90
5806;DHT22;2929;50.810;8.342;2023-12-14T02:39:50;3.60;99.90
5806;DHT22;2929;50.810;8.342;2023-12-14T02:42:24;3.60;99.90
5806;DHT22;2929;50.810;8.342;2023-12-14T02:45:00;3.70;99.90
5806;DHT22;2929;50.810;8.342;2023-12-14T02:47:28;3.70;99.90
5806;DHT22;2929;50.810;8.342;2023-12-14T02:49:56;3.70;99.90
5806;DHT22;2929;50.810;8.342;2023-12-14T02:52:23;3.70;99.90
5806;DHT22;2929;50.810;8.342;2023-12-14T02:54:51;3.70;99.90
5806;DHT22;2929;50.810;8.342;2023-12-14T02:57:18;3.70;99.90
5806;DHT22;2929;50.810;8.342;2023-12-14T02:59:45;3.70;99.90
5806;DHT22;2929;50.810;8.342;2023-12-14T03:02:12;3.70;99.90
5806;DHT22;2929;50.810;8.342;2023-12-14T03:04:39;3.70;99.90
5806;DHT22;2929;50.810;8.342;2023-12-14T03:07:08;3.70;99.90
5806;DHT22;2929;50.810;8.342;2023-12-14T03:09:39;3.70;99.90
5806;DHT22;2929;50.810;8.342;2023-12-14T03:12:11;3.70;99.90
5806;DHT22;2929;50.810;8.342;2023-12-14T03:14:38;3.70;99.90
5806;DHT22;2929;50.810;8.342;2023-12-14T03:17:07;3.60;99.90
5806;DHT22;2929;50.810;8.342;2023-12-14T03:19:38;3.60;99.90
5806;DHT22;2929;50.810;8.342;2023-12-14T03:22:06;3.60;99.90
5806;DHT22;2929;50.810;8.342;2023-12-14T03:24:33;3.70;99.90
5806;DHT22;2929;50.810;8.342;2023-12-14T03:27:00;3.70;99.90
5806;DHT22;2929;50.810;8.342;2023-12-14T03:29:29;3.70;99.90
5806;DHT22;2929;50.810;8.342;2023-12-14T03:31:56;3.70;99.90
5806;DHT22;2929;50.810;8.342;2023-12-14T03:34:23;3.60;99.90
5806;DHT22;2929;50.810;8.342;2023-12-14T03:36:50;3.70;99.90
5806;DHT22;2929;50.810;8.342;2023-12-14T03:39:18;3.60;99.90
5806;DHT22;2929;50.810;8.342;2023-12-14T03:41:45;3.60;99.90
5806;DHT22;2929;50.810;8.342;2023-12-14T03:44:12;3.60;99.90
5806;DHT22;2929;50.810;8.342;2023-12-14T03:46:40;3.70;99.90
5806;DHT22;2929;50.810;8.342;2023-12-14T03:49:08;3.70;99.90
5806;DHT22;2929;50.810;8.342;2023-12-14T03:51:35;3.70;99.90
5806;DHT22;2929;50.810;8.342;2023-12-14T03:54:02;3.70;99.90
5806;DHT22;2929;50.810;8.342;2023-12-14T03:56:29;3.70;99.90
5806;DHT22;2929;50.810;8.342;2023-12-14T03:58:56;3.70;99.90
5806;DHT22;2929;50.810;8.342;2023-12-14T04:01:23;3.70;99.90
5806;DHT22;2929;50.810;8.342;2023-12-14T04:03:52;3.70;99.90
5806;DHT22;2929;50.810;8.342;2023-12-14T04:06:19;3.70;99.90
5806;DHT22;2929;50.810;8.342;2023-12-14T04:08:46;3.70;99.90
5806;DHT22;2929;50.810;8.342;2023-12-14T04:11:13;3.80;99.90
5806;DHT22;2929;50.810;8.342;2023-12-14T04:13:40;3.80;99.90
5806;DHT22;2929;50.810;8.342;2023-12-14T04:16:08;3.80;99.90
5806;DHT22;2929;50.810;8.342;2023-12-14T04:18:35;3.80;99.90
5806;DHT22;2929;50.810;8.342;2023-12-14T04:21:05;3.80;99.90
5806;DHT22;2929;50.810;8.342;2023-12-14T04:23:33;3.80;99.90
5806;DHT22;2929;50.810;8.342;2023-12-14T04:26:00;3.80;99.90
5806;DHT22;2929;50.810;8.342;2023-12-14T04:28:26;3.80;99.90
5806;DHT22;2929;50.810;8.342;2023-12-14T04:30:53;3.80;99.90
5806;DHT22;2929;50.810;8.342;2023-12-14T04:33:20;3.90;99.90
5806;DHT22;2929;50.810;8.342;2023-12-14T04:35:47;3.90;99.90
5806;DHT22;2929;50.810;8.342;2023-12-14T04:38:15;3.90;99.90
5806;DHT22;2929;50.810;8.342;2023-12-14T04:40:42;3.90;99.90
5806;DHT22;2929;50.810;8.342;2023-12-14T04:43:09;3.90;99.90
5806;DHT22;2929;50.810;8.342;2023-12-14T04:45:36;4.00;99.90
5806;DHT22;2929;50.810;8.342;2023-12-14T04:48:03;4.00;99.90
5806;DHT22;2929;50.810;8.342;2023-12-14T04:50:30;4.00;99.90
5806;DHT22;2929;50.810;8.342;2023-12-14T04:52:57;4.00;99.90
5806;DHT22;2929;50.810;8.342;2023-12-14T04:55:26;4.00;99.90
5806;DHT22;2929;50.810;8.342;2023-12-14T04:57:53;4.00;99.90
5806;DHT22;2929;50.810;8.342;2023-12-14T05:00:20;4.00;99.90
5806;DHT22;2929;50.810;8.342;2023-12-14T05:02:47;4.00;99.90
5806;DHT22;2929;50.810;8.342;2023-12-14T05:05:15;4.10;99.90
5806;DHT22;2929;50.810;8.342;2023-12-14T05:07:41;4.10;99.90
5806;DHT22;2929;50.810;8.342;2023-12-14T05:10:09;4.10;99.90
5806;DHT22;2929;50.810;8.342;2023-12-14T05:12:38;4.10;99.90
5806;DHT22;2929;50.810;8.342;2023-12-14T05:15:06;4.10;99.90
5806;DHT22;2929;50.810;8.342;2023-12-14T05:17:33;4.20;99.90
5806;DHT22;2929;50.810;8.342;2023-12-14T05:20:03;4.20;99.90
5806;DHT22;2929;50.810;8.342;2023-12-14T05:22:31;4.20;99.90
5806;DHT22;2929;50.810;8.342;2023-12-14T05:24:58;4.20;99.90
5806;DHT22;2929;50.810;8.342;2023-12-14T05:27:25;4.20;99.90
5806;DHT22;2929;50.810;8.342;2023-12-14T05:29:53;4.20;99.90
5806;DHT22;2929;50.810;8.342;2023-12-14T05:32:21;4.20;99.90
5806;DHT22;2929;50.810;8.342;2023-12-14T05:34:47;4.20;99.90
5806;DHT22;2929;50.810;8.342;2023-12-14T05:37:15;4.20;99.90
5806;DHT22;2929;50.810;8.342;2023-12-14T05:39:42;4.20;99.90
5806;DHT22;2929;50.810;8.342;2023-12-14T05:42:10;4.20;99.90
5806;DHT22;2929;50.810;8.342;2023-12-14T05:44:37;4.20;99.90
5806;DHT22;2929;50.810;8.342;2023-12-14T05:47:06;4.20;99.90
5806;DHT22;2929;50.810;8.342;2023-12-14T05:49:33;4.30;99.90
5806;DHT22;2929;50.810;8.342;2023-12-14T05:52:00;4.30;99.90
5806;DHT22;2929;50.810;8.342;2023-12-14T05:54:28;4.30;99.90
5806;DHT22;2929;50.810;8.342;2023-12-14T05:56:55;4.40;99.90
5806;DHT22;2929;50.810;8.342;2023-12-14T05:59:22;4.30;99.90
5806;DHT22;2929;50.810;8.342;2023-12-14T06:01:56;4.30;99.90
5806;DHT22;2929;50.810;8.342;2023-12-14T06:04:26;4.30;99.90
5806;DHT22;2929;50.810;8.342;2023-12-14T06:06:53;4.30;99.90
5806;DHT22;2929;50.810;8.342;2023-12-14T06:09:20;4.40;99.90
5806;DHT22;2929;50.810;8.342;2023-12-14T06:11:51;4.40;99.90
5806;DHT22;2929;50.810;8.342;2023-12-14T06:14:18;4.50;99.90
5806;DHT22;2929;50.810;8.342;2023-12-14T06:16:46;4.60;99.90
5806;DHT22;2929;50.810;8.342;2023-12-14T06:19:13;4.60;99.90
5806;DHT22;2929;50.810;8.342;2023-12-14T06:21:42;4.70;99.90
5806;DHT22;2929;50.810;8.342;2023-12-14T06:24:09;4.60;99.90
5806;DHT22;2929;50.810;8.342;2023-12-14T06:26:40;4.60;99.90
5806;DHT22;2929;50.810;8.342;2023-12-14T06:29:08;4.60;99.90
5806;DHT22;2929;50.810;8.342;2023-12-14T06:31:36;4.60;99.90
5806;DHT22;2929;50.810;8.342;2023-12-14T06:34:03;4.60;99.90
5806;DHT22;2929;50.810;8.342;2023-12-14T06:36:31;4.50;99.90
5806;DHT22;2929;50.810;8.342;2023-12-14T06:39:00;4.60;99.90
5806;DHT22;2929;50.810;8.342;2023-12-14T06:41:29;4.60;99.90
5806;DHT22;2929;50.810;8.342;2023-12-14T06:43:57;4.60;99.90
5806;DHT22;2929;50.810;8.342;2023-12-14T06:46:25;4.60;99.90
5806;DHT22;2929;50.810;8.342;2023-12-14T06:48:53;4.60;99.90
5806;DHT22;2929;50.810;8.342;2023-12-14T06:51:21;4.70;99.90
5806;DHT22;2929;50.810;8.342;2023-12-14T06:53:48;4.80;99.90
5806;DHT22;2929;50.810;8.342;2023-12-14T06:56:16;4.70;99.90
5806;DHT22;2929;50.810;8.342;2023-12-14T06:58:45;4.70;99.90
5806;DHT22;2929;50.810;8.342;2023-12-14T07:01:15;4.70;99.90
5806;DHT22;2929;50.810;8.342;2023-12-14T07:03:44;4.70;99.90
5806;DHT22;2929;50.810;8.342;2023-12-14T07:06:12;4.70;99.90
5806;DHT22;2929;50.810;8.342;2023-12-14T07:08:40;4.80;99.90
5806;DHT22;2929;50.810;8.342;2023-12-14T07:11:07;4.80;99.90
5806;DHT22;2929;50.810;8.342;2023-12-14T07:13:36;4.80;99.90
5806;DHT22;2929;50.810;8.342;2023-12-14T07:16:05;4.90;99.90
5806;DHT22;2929;50.810;8.342;2023-12-14T07:18:33;4.90;99.90
5806;DHT22;2929;50.810;8.342;2023-12-14T07:21:00;4.90;99.90
5806;DHT22;2929;50.810;8.342;2023-12-14T07:23:28;5.00;99.90
5806;DHT22;2929;50.810;8.342;2023-12-14T07:25:56;5.00;99.90
5806;DHT22;2929;50.810;8.342;2023-12-14T07:28:25;4.90;99.90
5806;DHT22;2929;50.810;8.342;2023-12-14T07:30:54;4.90;99.90
5806;DHT22;2929;50.810;8.342;2023-12-14T07:33:21;4.80;99.90
5806;DHT22;2929;50.810;8.342;2023-12-14T07:35:48;4.90;99.90
5806;DHT22;2929;50.810;8.342;2023-12-14T07:38:15;4.90;99.90
5806;DHT22;2929;50.810;8.342;2023-12-14T07:40:42;4.90;99.90
5806;DHT22;2929;50.810;8.342;2023-12-14T07:43:10;4.90;99.90
5806;DHT22;2929;50.810;8.342;2023-12-14T07:45:37;4.90;99.90
5806;DHT22;2929;50.810;8.342;2023-12-14T07:48:06;4.90;99.90
5806;DHT22;2929;50.810;8.342;2023-12-14T07:50:33;4.90;99.90
5806;DHT22;2929;50.810;8.342;2023-12-14T07:52:59;4.90;99.90
5806;DHT22;2929;50.810;8.342;2023-12-14T07:55:28;4.90;99.90
5806;DHT22;2929;50.810;8.342;2023-12-14T07:57:55;4.90;99.90
5806;DHT22;2929;50.810;8.342;2023-12-14T08:00:22;4.90;99.90
5806;DHT22;2929;50.810;8.342;2023-12-14T08:02:49;5.00;99.90
5806;DHT22;2929;50.810;8.342;2023-12-14T08:05:17;4.90;99.90
5806;DHT22;2929;50.810;8.342;2023-12-14T08:07:44;4.90;99.90
5806;DHT22;2929;50.810;8.342;2023-12-14T08:10:11;4.90;99.90
5806;DHT22;2929;50.810;8.342;2023-12-14T08:12:38;4.90;99.90
5806;DHT22;2929;50.810;8.342;2023-12-14T08:15:05;4.90;99.90
5806;DHT22;2929;50.810;8.342;2023-12-14T08:17:33;4.90;99.90
5806;DHT22;2929;50.810;8.342;2023-12-14T08:20:00;5.00;99.90
5806;DHT22;2929;50.810;8.342;2023-12-14T08:22:30;5.00;99.90
5806;DHT22;2929;50.810;8.342;2023-12-14T08:24:57;5.00;99.90
5806;DHT22;2929;50.810;8.342;2023-12-14T08:27:24;5.00;99.90
5806;DHT22;2929;50.810;8.342;2023-12-14T08:29:51;5.00;99.90
5806;DHT22;2929;50.810;8.342;2023-12-14T08:32:18;5.00;99.90
5806;DHT22;2929;50.810;8.342;2023-12-14T08:34:45;5.00;99.90
5806;DHT22;2929;50.810;8.342;2023-12-14T08:37:13;5.00;99.90
5806;DHT22;2929;50.810;8.342;2023-12-14T08:39:41;5.00;99.90
5806;DHT22;2929;50.810;8.342;2023-12-14T08:42:08;5.00;99.90
5806;DHT22;2929;50.810;8.342;2023-12-14T08:44:38;5.00;99.90
5806;DHT22;2929;50.810;8.342;2023-12-14T08:47:06;4.90;99.90
5806;DHT22;2929;50.810;8.342;2023-12-14T08:49:35;4.90;99.90
5806;DHT22;2929;50.810;8.342;2023-12-14T08:52:02;4.90;99.90
5806;DHT22;2929;50.810;8.342;2023-12-14T08:54:31;4.90;99.90
5806;DHT22;2929;50.810;8.342;2023-12-14T08:57:00;5.00;99.90
5806;DHT22;2929;50.810;8.342;2023-12-14T08:59:28;4.90;99.90
5806;DHT22;2929;50.810;8.342;2023-12-14T09:01:55;4.90;99.90
5806;DHT22;2929;50.810;8.342;2023-12-14T09:04:22;4.90;99.90
5806;DHT22;2929;50.810;8.342;2023-12-14T09:06:49;4.90;99.90
5806;DHT22;2929;50.810;8.342;2023-12-14T09:09:17;4.90;99.90
5806;DHT22;2929;50.810;8.342;2023-12-14T09:11:45;4.90;99.90
5806;DHT22;2929;50.810;8.342;2023-12-14T09:14:14;4.90;99.90
5806;DHT22;2929;50.810;8.342;2023-12-14T09:16:42;4.90;99.90
5806;DHT22;2929;50.810;8.342;2023-12-14T09:19:11;4.90;99.90
5806;DHT22;2929;50.810;8.342;2023-12-14T09:21:41;5.00;99.90
5806;DHT22;2929;50.810;8.342;2023-12-14T09:24:11;5.00;99.90
5806;DHT22;2929;50.810;8.342;2023-12-14T09:26:40;5.10;99.90
5806;DHT22;2929;50.810;8.342;2023-12-14T09:29:10;5.10;99.90
5806;DHT22;2929;50.810;8.342;2023-12-14T09:31:45;5.10;99.90
5806;DHT22;2929;50.810;8.342;2023-12-14T09:34:13;5.00;99.90
5806;DHT22;2929;50.810;8.342;2023-12-14T09:36:42;5.10;99.90
5806;DHT22;2929;50.810;8.342;2023-12-14T09:39:09;5.10;99.90
5806;DHT22;2929;50.810;8.342;2023-12-14T09:41:42;5.10;99.90
5806;DHT22;2929;50.810;8.342;2023-12-14T09:44:16;5.10;99.90
5806;DHT22;2929;50.810;8.342;2023-12-14T09:46:45;5.10;99.90
5806;DHT22;2929;50.810;8.342;2023-12-14T09:49:15;5.10;99.90
5806;DHT22;2929;50.810;8.342;2023-12-14T09:51:44;5.10;99.90
5806;DHT22;2929;50.810;8.342;2023-12-14T09:54:11;5.10;99.90
5806;DHT22;2929;50.810;8.342;2023-12-14T09:56:46;5.00;99.90
5806;DHT22;2929;50.810;8.342;2023-12-14T09:59:13;5.00;99.90
5806;DHT22;2929;50.810;8.342;2023-12-14T10:01:41;5.00;99.90
5806;DHT22;2929;50.810;8.342;2023-12-14T10:04:12;5.00;99.90
5806;DHT22;2929;50.810;8.342;2023-12-14T10:06:41;5.00;99.90
5806;DHT22;2929;50.810;8.342;2023-12-14T10:09:10;5.10;99.90
5806;DHT22;2929;50.810;8.342;2023-12-14T10:11:42;5.10;99.90
5806;DHT22;2929;50.810;8.342;2023-12-14T10:14:18;5.10;99.90
5806;DHT22;2929;50.810;8.342;2023-12-14T10:16:47;5.10;99.90
5806;DHT22;2929;50.810;8.342;2023-12-14T10:19:16;5.20;99.90
5806;DHT22;2929;50.810;8.342;2023-12-14T10:21:44;5.10;99.90
5806;DHT22;2929;50.810;8.342;2023-12-14T10:24:13;5.10;99.90
5806;DHT22;2929;50.810;8.342;2023-12-14T10:26:41;5.10;99.90
5806;DHT22;2929;50.810;8.342;2023-12-14T10:29:08;5.20;99.90
5806;DHT22;2929;50.810;8.342;2023-12-14T10:31:36;5.10;99.90
5806;DHT22;2929;50.810;8.342;2023-12-14T10:34:03;5.10;99.90
5806;DHT22;2929;50.810;8.342;2023-12-14T10:36:37;5.10;99.90
5806;DHT22;2929;50.810;8.342;2023-12-14T10:39:10;5.20;99.90
5806;DHT22;2929;50.810;8.342;2023-12-14T10:41:41;5.20;99.90
5806;DHT22;2929;50.810;8.342;2023-12-14T10:44:09;5.20;99.90
5806;DHT22;2929;50.810;8.342;2023-12-14T10:46:37;5.20;99.90
5806;DHT22;2929;50.810;8.342;2023-12-14T10:49:04;5.30;99.90
5806;DHT22;2929;50.810;8.342;2023-12-14T10:51:32;5.30;99.90
5806;DHT22;2929;50.810;8.342;2023-12-14T10:54:02;5.30;99.90
5806;DHT22;2929;50.810;8.342;2023-12-14T10:56:31;5.40;99.90
5806;DHT22;2929;50.810;8.342;2023-12-14T10:58:59;5.40;99.90
5806;DHT22;2929;50.810;8.342;2023-12-14T11:01:28;5.40;99.90
5806;DHT22;2929;50.810;8.342;2023-12-14T11:04:03;5.50;99.90
5806;DHT22;2929;50.810;8.342;2023-12-14T11:06:36;5.50;99.90
5806;DHT22;2929;50.810;8.342;2023-12-14T11:09:07;5.50;99.90
5806;DHT22;2929;50.810;8.342;2023-12-14T11:11:41;5.60;99.90
5806;DHT22;2929;50.810;8.342;2023-12-14T11:14:11;5.60;99.90
5806;DHT22;2929;50.810;8.342;2023-12-14T11:16:39;5.60;99.90
5806;DHT22;2929;50.810;8.342;2023-12-14T11:19:28;5.70;99.90
5806;DHT22;2929;50.810;8.342;2023-12-14T11:22:23;5.70;99.90
5806;DHT22;2929;50.810;8.342;2023-12-14T11:24:57;5.80;99.90
5806;DHT22;2929;50.810;8.342;2023-12-14T11:27:27;5.70;99.90
5806;DHT22;2929;50.810;8.342;2023-12-14T11:29:55;5.70;99.90
5806;DHT22;2929;50.810;8.342;2023-12-14T11:32:26;5.80;99.90
5806;DHT22;2929;50.810;8.342;2023-12-14T11:34:55;5.70;99.90
5806;DHT22;2929;50.810;8.342;2023-12-14T11:37:24;5.60;99.90
5806;DHT22;2929;50.810;8.342;2023-12-14T11:39:53;5.60;99.90
5806;DHT22;2929;50.810;8.342;2023-12-14T11:42:22;5.60;99.90
5806;DHT22;2929;50.810;8.342;2023-12-14T11:44:50;5.60;99.90
5806;DHT22;2929;50.810;8.342;2023-12-14T11:47:17;5.70;99.90
5806;DHT22;2929;50.810;8.342;2023-12-14T11:49:45;5.70;99.90
5806;DHT22;2929;50.810;8.342;2023-12-14T11:52:13;5.70;99.90
5806;DHT22;2929;50.810;8.342;2023-12-14T11:54:42;5.70;99.90
5806;DHT22;2929;50.810;8.342;2023-12-14T11:57:12;5.70;99.90
5806;DHT22;2929;50.810;8.342;2023-12-14T11:59:39;5.80;99.90
5806;DHT22;2929;50.810;8.342;2023-12-14T12:02:07;5.80;99.90
5806;DHT22;2929;50.810;8.342;2023-12-14T12:04:35;5.70;99.90
5806;DHT22;2929;50.810;8.342;2023-12-14T12:07:05;5.70;99.90
5806;DHT22;2929;50.810;8.342;2023-12-14T12:09:36;5.70;99.90
5806;DHT22;2929;50.810;8.342;2023-12-14T12:12:08;5.60;99.90
5806;DHT22;2929;50.810;8.342;2023-12-14T12:14:39;5.60;99.90
5806;DHT22;2929;50.810;8.342;2023-12-14T12:17:08;5.60;99.90
5806;DHT22;2929;50.810;8.342;2023-12-14T12:19:37;5.60;99.90
5806;DHT22;2929;50.810;8.342;2023-12-14T12:22:06;5.60;99.90
5806;DHT22;2929;50.810;8.342;2023-12-14T12:24:34;5.60;99.90
5806;DHT22;2929;50.810;8.342;2023-12-14T12:27:02;5.60;99.90
5806;DHT22;2929;50.810;8.342;2023-12-14T12:29:30;5.60;99.90
5806;DHT22;2929;50.810;8.342;2023-12-14T12:31:58;5.60;99.90
5806;DHT22;2929;50.810;8.342;2023-12-14T12:34:25;5.50;99.90
5806;DHT22;2929;50.810;8.342;2023-12-14T12:36:52;5.60;99.90
5806;DHT22;2929;50.810;8.342;2023-12-14T12:39:20;5.50;99.90
5806;DHT22;2929;50.810;8.342;2023-12-14T12:41:47;5.50;99.90
5806;DHT22;2929;50.810;8.342;2023-12-14T12:44:15;5.40;99.90
5806;DHT22;2929;50.810;8.342;2023-12-14T12:46:42;5.40;99.90
5806;DHT22;2929;50.810;8.342;2023-12-14T12:49:10;5.40;99.90
5806;DHT22;2929;50.810;8.342;2023-12-14T12:51:59;5.40;99.90
5806;DHT22;2929;50.810;8.342;2023-12-14T12:54:31;5.50;99.90
5806;DHT22;2929;50.810;8.342;2023-12-14T12:57:02;5.50;99.90
5806;DHT22;2929;50.810;8.342;2023-12-14T12:59:35;5.60;99.90
5806;DHT22;2929;50.810;8.342;2023-12-14T13:02:06;5.60;99.90
5806;DHT22;2929;50.810;8.342;2023-12-14T13:04:41;5.60;99.90
5806;DHT22;2929;50.810;8.342;2023-12-14T13:07:10;5.50;99.90
5806;DHT22;2929;50.810;8.342;2023-12-14T13:09:41;5.50;99.90
5806;DHT22;2929;50.810;8.342;2023-12-14T13:12:08;5.40;99.90
5806;DHT22;2929;50.810;8.342;2023-12-14T13:14:41;5.40;99.90
5806;DHT22;2929;50.810;8.342;2023-12-14T13:17:13;5.30;99.90
5806;DHT22;2929;50.810;8.342;2023-12-14T13:19:43;5.30;99.90
5806;DHT22;2929;50.810;8.342;2023-12-14T13:22:10;5.30;99.90
5806;DHT22;2929;50.810;8.342;2023-12-14T13:24:38;5.30;99.90
5806;DHT22;2929;50.810;8.342;2023-12-14T13:27:05;5.30;99.90
5806;DHT22;2929;50.810;8.342;2023-12-14T13:29:32;5.40;99.90
5806;DHT22;2929;50.810;8.342;2023-12-14T13:32:00;5.40;99.90
5806;DHT22;2929;50.810;8.342;2023-12-14T13:34:27;5.50;99.90
5806;DHT22;2929;50.810;8.342;2023-12-14T13:36:57;5.40;99.90
5806;DHT22;2929;50.810;8.342;2023-12-14T13:39:26;5.40;99.90
5806;DHT22;2929;50.810;8.342;2023-12-14T13:41:54;5.40;99.90
5806;DHT22;2929;50.810;8.342;2023-12-14T13:44:21;5.40;99.90
5806;DHT22;2929;50.810;8.342;2023-12-14T13:46:49;5.30;99.90
5806;DHT22;2929;50.810;8.342;2023-12-14T13:49:16;5.30;99.90
5806;DHT22;2929;50.810;8.342;2023-12-14T13:51:43;5.20;99.90
5806;DHT22;2929;50.810;8.342;2023-12-14T13:54:11;5.30;99.90
5806;DHT22;2929;50.810;8.342;2023-12-14T13:56:39;5.30;99.90
5806;DHT22;2929;50.810;8.342;2023-12-14T13:59:07;5.20;99.90
5806;DHT22;2929;50.810;8.342;2023-12-14T14:01:35;5.20;99.90
5806;DHT22;2929;50.810;8.342;2023-12-14T14:04:04;5.20;99.90
5806;DHT22;2929;50.810;8.342;2023-12-14T14:06:31;5.20;99.90
5806;DHT22;2929;50.810;8.342;2023-12-14T14:09:00;5.20;99.90
5806;DHT22;2929;50.810;8.342;2023-12-14T14:11:30;5.20;99.90
5806;DHT22;2929;50.810;8.342;2023-12-14T14:13:57;5.20;99.90
5806;DHT22;2929;50.810;8.342;2023-12-14T14:16:26;5.20;99.90
5806;DHT22;2929;50.810;8.342;2023-12-14T14:18:53;5.20;99.90
5806;DHT22;2929;50.810;8.342;2023-12-14T14:21:25;5.30;99.90
5806;DHT22;2929;50.810;8.342;2023-12-14T14:23:53;5.30;99.90
5806;DHT22;2929;50.810;8.342;2023-12-14T14:26:26;5.20;99.90
5806;DHT22;2929;50.810;8.342;2023-12-14T14:29:05;5.20;99.90
5806;DHT22;2929;50.810;8.342;2023-12-14T14:31:42;5.10;99.90
5806;DHT22;2929;50.810;8.342;2023-12-14T14:34:10;5.20;99.90
5806;DHT22;2929;50.810;8.342;2023-12-14T14:36:38;5.10;99.90
5806;DHT22;2929;50.810;8.342;2023-12-14T14:39:05;5.10;99.90
5806;DHT22;2929;50.810;8.342;2023-12-14T14:41:35;5.00;99.90
5806;DHT22;2929;50.810;8.342;2023-12-14T14:44:02;5.00;99.90
5806;DHT22;2929;50.810;8.342;2023-12-14T14:46:32;5.00;99.90
5806;DHT22;2929;50.810;8.342;2023-12-14T14:49:00;4.90;99.90
5806;DHT22;2929;50.810;8.342;2023-12-14T14:51:28;4.80;99.90
5806;DHT22;2929;50.810;8.342;2023-12-14T14:53:57;4.80;99.90
5806;DHT22;2929;50.810;8.342;2023-12-14T14:56:24;4.80;99.90
5806;DHT22;2929;50.810;8.342;2023-12-14T14:58:51;4.70;99.90
5806;DHT22;2929;50.810;8.342;2023-12-14T15:01:17;4.70;99.90
5806;DHT22;2929;50.810;8.342;2023-12-14T15:03:47;4.70;99.90
5806;DHT22;2929;50.810;8.342;2023-12-14T15:06:14;4.70;99.90
5806;DHT22;2929;50.810;8.342;2023-12-14T15:08:41;4.70;99.90
5806;DHT22;2929;50.810;8.342;2023-12-14T15:11:08;4.60;99.90
5806;DHT22;2929;50.810;8.342;2023-12-14T15:13:37;4.50;99.90
5806;DHT22;2929;50.810;8.342;2023-12-14T15:16:06;4.60;99.90
5806;DHT22;2929;50.810;8.342;2023-12-14T15:18:34;4.60;99.90
5806;DHT22;2929;50.810;8.342;2023-12-14T15:21:08;4.60;99.90
5806;DHT22;2929;50.810;8.342;2023-12-14T15:23:36;4.60;99.90
5806;DHT22;2929;50.810;8.342;2023-12-14T15:26:05;4.50;99.90
5806;DHT22;2929;50.810;8.342;2023-12-14T15:28:33;4.60;99.90
5806;DHT22;2929;50.810;8.342;2023-12-14T15:31:00;4.60;99.90
5806;DHT22;2929;50.810;8.342;2023-12-14T15:33:27;4.70;99.90
5806;DHT22;2929;50.810;8.342;2023-12-14T15:35:54;4.60;99.90
5806;DHT22;2929;50.810;8.342;2023-12-14T15:38:23;4.60;99.90
5806;DHT22;2929;50.810;8.342;2023-12-14T15:40:50;4.50;99.90
5806;DHT22;2929;50.810;8.342;2023-12-14T15:43:17;4.50;99.90
5806;DHT22;2929;50.810;8.342;2023-12-14T15:45:44;4.50;99.90
5806;DHT22;2929;50.810;8.342;2023-12-14T15:48:17;4.50;99.90
5806;DHT22;2929;50.810;8.342;2023-12-14T15:50:46;4.40;99.90
5806;DHT22;2929;50.810;8.342;2023-12-14T15:53:13;4.40;99.90
5806;DHT22;2929;50.810;8.342;2023-12-14T15:55:41;4.40;99.90
5806;DHT22;2929;50.810;8.342;2023-12-14T15:58:09;4.40;99.90
5806;DHT22;2929;50.810;8.342;2023-12-14T16:00:36;4.30;99.90
5806;DHT22;2929;50.810;8.342;2023-12-14T16:03:04;4.30;99.90
5806;DHT22;2929;50.810;8.342;2023-12-14T16:05:31;4.30;99.90
5806;DHT22;2929;50.810;8.342;2023-12-14T16:07:58;4.30;99.90
5806;DHT22;2929;50.810;8.342;2023-12-14T16:10:25;4.30;99.90
5806;DHT22;2929;50.810;8.342;2023-12-14T16:12:54;4.30;99.90
5806;DHT22;2929;50.810;8.342;2023-12-14T16:15:22;4.30;99.90
5806;DHT22;2929;50.810;8.342;2023-12-14T16:17:50;4.30;99.90
5806;DHT22;2929;50.810;8.342;2023-12-14T16:20:19;4.30;99.90
5806;DHT22;2929;50.810;8.342;2023-12-14T16:22:50;4.20;99.90
5806;DHT22;2929;50.810;8.342;2023-12-14T16:25:17;4.20;99.90